createdAt,value
2019-04-04T00:00:31.328Z,7.60
2019-04-04T00:02:59.723Z,7.40
2019-04-04T00:05:28.156Z,7.60
2019-04-04T00:07:58.073Z,7.63
2019-04-04T00:10:26.744Z,7.80
2019-04-04T00:12:55.176Z,7.13
2019-04-04T00:15:23.569Z,7.77
2019-04-04T00:17:53.856Z,7.80
2019-04-04T00:20:22.116Z,7.20
2019-04-04T00:22:50.509Z,7.30
2019-04-04T00:25:18.986Z,7.80
2019-04-04T00:27:47.410Z,7.60
2019-04-04T00:30:16.160Z,7.47
2019-04-04T00:32:46.313Z,7.27
2019-04-04T00:35:14.747Z,6.87
2019-04-04T00:37:43.145Z,6.57
2019-04-04T00:40:11.860Z,7.13
2019-04-04T00:42:40.440Z,7.87
2019-04-04T00:45:08.980Z,7.27
2019-04-04T00:47:37.373Z,7.73
2019-04-04T00:50:07.449Z,7.23
2019-04-04T00:52:35.841Z,7.37
2019-04-04T00:55:06.089Z,7.43
2019-04-04T00:57:34.526Z,7.70
2019-04-04T01:00:02.981Z,7.40
2019-04-04T01:02:31.382Z,7.90
2019-04-04T01:05:01.321Z,7.60
2019-04-04T01:07:29.934Z,8.10
2019-04-04T01:09:58.361Z,8.07
2019-04-04T01:12:26.791Z,7.80
2019-04-04T01:14:55.199Z,7.73
2019-04-04T01:17:23.598Z,7.20
2019-04-04T01:19:52.025Z,7.60
2019-04-04T01:22:20.418Z,7.33
2019-04-04T01:24:48.826Z,7.07
2019-04-04T01:27:17.252Z,7.40
2019-04-04T01:29:45.850Z,7.33
2019-04-04T01:32:15.130Z,7.12
2019-04-04T01:34:44.459Z,7.30
2019-04-04T01:37:12.855Z,6.83
2019-04-04T01:39:41.247Z,7.23
2019-04-04T01:42:09.677Z,6.70
2019-04-04T01:44:38.073Z,7.67
2019-04-04T01:47:06.476Z,7.50
2019-04-04T01:49:34.933Z,6.77
2019-04-04T01:52:03.523Z,7.93
2019-04-04T01:54:32.675Z,6.80
2019-04-04T01:57:01.409Z,7.20
2019-04-04T01:59:29.846Z,7.40
2019-04-04T02:01:58.247Z,7.30
2019-04-04T02:04:26.657Z,8.37
2019-04-04T02:06:55.116Z,7.50
2019-04-04T02:09:23.523Z,8.40
2019-04-04T02:11:51.912Z,8.13
2019-04-04T02:14:20.359Z,8.93
2019-04-04T02:16:51.497Z,8.77
2019-04-04T02:19:18.901Z,8.57
2019-04-04T02:21:47.308Z,8.77
2019-04-04T02:24:15.726Z,9.58
2019-04-04T02:26:44.162Z,9.10
2019-04-04T02:29:12.718Z,9.67
2019-04-04T02:31:42.769Z,8.87
2019-04-04T02:34:11.220Z,9.30
2019-04-04T02:36:39.666Z,8.77
2019-04-04T02:39:10.675Z,9.90
2019-04-04T02:41:39.101Z,9.13
2019-04-04T02:44:08.037Z,9.73
2019-04-04T02:46:36.438Z,9.83
2019-04-04T02:49:05.021Z,9.27
2019-04-04T02:51:33.453Z,8.97
2019-04-04T02:54:01.862Z,8.70
2019-04-04T02:56:34.757Z,9.13
2019-04-04T02:59:00.494Z,9.40
2019-04-04T03:01:31.782Z,8.90
2019-04-04T03:03:59.097Z,8.47
2019-04-04T03:06:27.536Z,9.03
2019-04-04T03:08:55.958Z,8.63
2019-04-04T03:11:24.428Z,9.10
2019-04-04T03:13:52.850Z,9.13
2019-04-04T03:16:22.393Z,8.90
2019-04-04T03:18:51.014Z,8.50
2019-04-04T03:21:21.983Z,8.57
2019-04-04T03:23:49.564Z,8.20
2019-04-04T03:26:20.228Z,8.10
2019-04-04T03:28:48.319Z,8.10
2019-04-04T03:31:16.779Z,8.30
2019-04-04T03:33:45.186Z,7.60
2019-04-04T03:36:13.590Z,8.43
2019-04-04T03:38:46.079Z,8.00
2019-04-04T03:41:12.141Z,7.90
2019-04-04T03:43:40.539Z,7.90
2019-04-04T03:46:08.992Z,8.43
2019-04-04T03:48:37.452Z,7.63
2019-04-04T03:51:05.888Z,7.93
2019-04-04T03:53:34.576Z,8.40
2019-04-04T03:56:02.965Z,8.00
2019-04-04T03:58:31.362Z,8.43
2019-04-04T04:00:59.791Z,7.40
2019-04-04T04:03:28.208Z,7.47
2019-04-04T04:05:56.609Z,7.67
2019-04-04T04:08:25.042Z,8.10
2019-04-04T04:10:53.437Z,7.20
2019-04-04T04:13:21.838Z,7.27
2019-04-04T04:15:50.276Z,7.40
2019-04-04T04:18:21.316Z,8.50
2019-04-04T04:20:48.909Z,7.80
2019-04-04T04:23:17.319Z,7.63
2019-04-04T04:25:45.928Z,8.07
2019-04-04T04:28:14.344Z,7.93
2019-04-04T04:30:42.736Z,7.40
2019-04-04T04:33:11.182Z,7.03
2019-04-04T04:35:42.053Z,7.10
2019-04-04T04:38:09.725Z,7.40
2019-04-04T04:40:38.361Z,6.93
2019-04-04T04:43:06.800Z,7.43
2019-04-04T04:45:35.214Z,7.80
2019-04-04T04:48:03.710Z,7.13
2019-04-04T04:50:32.100Z,7.70
2019-04-04T04:53:00.546Z,7.97
2019-04-04T04:55:28.962Z,7.07
2019-04-04T04:57:57.431Z,7.37
2019-04-04T05:00:27.699Z,8.23
2019-04-04T05:02:56.010Z,8.37
2019-04-04T05:05:24.397Z,8.63
2019-04-04T05:07:54.846Z,8.20
2019-04-04T05:10:22.964Z,8.90
2019-04-04T05:12:53.117Z,9.33
2019-04-04T05:15:21.582Z,10.10
2019-04-04T05:17:49.989Z,10.07
2019-04-04T05:20:18.395Z,10.00
2019-04-04T05:22:46.822Z,9.40
2019-04-04T05:25:15.244Z,9.97
2019-04-04T05:27:43.636Z,9.77
2019-04-04T05:30:12.250Z,10.47
2019-04-04T05:32:40.698Z,10.33
2019-04-04T05:35:09.290Z,10.53
2019-04-04T05:37:38.220Z,10.47
2019-04-04T05:40:08.235Z,10.80
2019-04-04T05:42:36.728Z,10.47
2019-04-04T05:45:08.363Z,11.40
2019-04-04T05:47:36.987Z,11.27
2019-04-04T05:50:06.765Z,11.17
2019-04-04T05:52:35.205Z,10.63
2019-04-04T05:55:04.192Z,10.77
2019-04-04T05:57:32.597Z,10.90
2019-04-04T06:00:01.128Z,10.40
2019-04-04T06:02:29.570Z,10.47
2019-04-04T06:04:58.008Z,10.13
2019-04-04T06:07:26.452Z,10.00
2019-04-04T06:09:54.941Z,10.47
2019-04-04T06:12:25.119Z,9.90
2019-04-04T06:14:53.563Z,9.87
2019-04-04T06:17:21.956Z,10.37
2019-04-04T06:19:50.359Z,10.87
2019-04-04T06:22:21.081Z,10.10
2019-04-04T06:24:51.972Z,11.33
2019-04-04T06:27:19.281Z,11.23
2019-04-04T06:29:48.299Z,11.20
2019-04-04T06:32:16.914Z,11.30
2019-04-04T06:34:45.338Z,11.50
2019-04-04T06:37:13.763Z,11.40
2019-04-04T06:39:42.173Z,11.63
2019-04-04T06:42:11.411Z,11.33
2019-04-04T06:44:39.923Z,14.27
2019-04-04T06:47:08.342Z,10.87
2019-04-04T06:49:36.766Z,10.90
2019-04-04T06:52:05.259Z,10.20
2019-04-04T06:54:33.667Z,10.57
2019-04-04T06:57:03.868Z,11.57
2019-04-04T06:59:32.674Z,10.80
2019-04-04T07:02:01.538Z,10.20
2019-04-04T07:04:31.850Z,10.63
2019-04-04T07:07:02.122Z,10.67
2019-04-04T07:09:30.545Z,10.17
2019-04-04T07:11:58.961Z,11.33
2019-04-04T07:14:29.882Z,11.10
2019-04-04T07:16:57.576Z,10.97
2019-04-04T07:19:26.171Z,10.47
2019-04-04T07:21:54.580Z,11.07
2019-04-04T07:24:22.971Z,10.57
2019-04-04T07:26:51.431Z,10.30
2019-04-04T07:29:19.831Z,10.53
2019-04-04T07:31:48.225Z,10.20
2019-04-04T07:34:16.658Z,10.77
2019-04-04T07:36:45.129Z,9.70
2019-04-04T07:39:13.535Z,10.20
2019-04-04T07:41:44.973Z,10.90
2019-04-04T07:44:12.106Z,10.70
2019-04-04T07:46:41.195Z,10.83
2019-04-04T07:49:10.687Z,9.97
2019-04-04T07:51:39.094Z,10.60
2019-04-04T07:54:08.030Z,9.43
2019-04-04T07:56:36.595Z,10.20
2019-04-04T07:59:05.009Z,10.10
2019-04-04T08:01:33.427Z,9.40
2019-04-04T08:04:01.834Z,9.43
2019-04-04T08:06:30.235Z,9.10
2019-04-04T08:08:58.669Z,9.17
2019-04-04T08:11:27.240Z,9.20
2019-04-04T08:13:55.666Z,9.20
2019-04-04T08:16:24.093Z,8.83
2019-04-04T08:18:52.556Z,9.67
2019-04-04T08:21:21.432Z,8.23
2019-04-04T08:23:49.839Z,7.23
2019-04-04T08:26:18.225Z,7.00
2019-04-04T08:28:46.650Z,6.50
2019-04-04T08:31:15.076Z,6.63
2019-04-04T08:33:43.464Z,6.77
2019-04-04T08:36:11.922Z,6.60
2019-04-04T08:38:40.317Z,6.67
2019-04-04T08:41:08.732Z,7.40
2019-04-04T08:43:37.401Z,6.97
2019-04-04T08:46:05.824Z,7.40
2019-04-04T08:48:35.160Z,8.57
2019-04-04T08:51:03.592Z,7.67
2019-04-04T08:53:39.891Z,8.83
2019-04-04T08:56:02.207Z,7.80
2019-04-04T08:58:30.593Z,8.23
2019-04-04T09:00:59.025Z,8.97
2019-04-04T09:03:27.436Z,8.77
2019-04-04T09:05:55.857Z,6.93
2019-04-04T09:08:24.252Z,7.80
2019-04-04T09:10:52.724Z,7.07
2019-04-04T09:13:21.142Z,6.60
2019-04-04T09:15:49.549Z,6.20
2019-04-04T09:18:18.018Z,6.13
2019-04-04T09:20:46.472Z,6.67
2019-04-04T09:23:14.868Z,7.80
2019-04-04T09:25:44.228Z,7.17
2019-04-04T09:28:12.616Z,7.33
2019-04-04T09:30:42.320Z,7.33
2019-04-04T09:33:10.751Z,7.03
2019-04-04T09:35:39.159Z,7.30
2019-04-04T09:38:08.029Z,6.67
2019-04-04T09:40:36.428Z,6.77
2019-04-04T09:43:04.826Z,7.57
2019-04-04T09:45:33.296Z,7.27
2019-04-04T09:48:01.767Z,6.83
2019-04-04T09:50:30.186Z,7.10
2019-04-04T09:52:59.041Z,7.10
2019-04-04T09:55:27.533Z,6.93
2019-04-04T09:57:55.948Z,6.83
2019-04-04T10:00:24.619Z,6.80
2019-04-04T10:02:53.046Z,6.53
2019-04-04T10:05:21.446Z,6.43
2019-04-04T10:07:50.071Z,7.07
2019-04-04T10:10:18.879Z,7.00
2019-04-04T10:12:47.304Z,6.97
2019-04-04T10:15:17.272Z,6.70
2019-04-04T10:17:49.104Z,7.17
2019-04-04T10:20:16.174Z,7.20
2019-04-04T10:22:44.585Z,6.93
2019-04-04T10:25:13.481Z,8.07
2019-04-04T10:27:41.939Z,9.70
2019-04-04T10:30:11.310Z,8.47
2019-04-04T10:32:39.711Z,7.40
2019-04-04T10:35:08.502Z,13.10
2019-04-04T10:37:36.935Z,8.37
2019-04-04T10:40:08.597Z,7.63
2019-04-04T10:42:37.084Z,6.80
2019-04-04T10:45:08.572Z,7.23
2019-04-04T10:47:36.961Z,7.67
2019-04-04T10:50:08.677Z,8.10
2019-04-04T10:52:37.093Z,7.20
2019-04-04T10:55:06.606Z,7.40
2019-04-04T10:57:35.214Z,7.47
2019-04-04T11:00:08.519Z,7.53
2019-04-04T11:02:36.914Z,7.13
2019-04-04T11:05:06.917Z,7.70
2019-04-04T11:07:35.605Z,7.00
2019-04-04T11:10:05.530Z,6.80
2019-04-04T11:12:34.439Z,7.07
2019-04-04T11:15:03.701Z,7.07
2019-04-04T11:17:32.124Z,7.70
2019-04-04T11:20:00.571Z,6.90
2019-04-04T11:22:28.973Z,7.23
2019-04-04T11:24:57.358Z,6.80
2019-04-04T11:27:25.801Z,6.57
2019-04-04T11:29:54.194Z,6.37
2019-04-04T11:32:22.590Z,6.67
2019-04-04T11:34:53.300Z,6.50
2019-04-04T11:37:21.165Z,6.50
2019-04-04T11:39:55.018Z,6.53
2019-04-04T11:42:19.744Z,6.25
2019-04-04T11:44:48.148Z,5.83
2019-04-04T11:47:16.564Z,5.33
2019-04-04T11:49:45.010Z,5.10
2019-04-04T11:52:13.420Z,5.33
2019-04-04T11:55:00.772Z,4.77
2019-04-04T11:57:29.176Z,5.03
2019-04-04T11:59:57.567Z,4.43
2019-04-04T12:02:27.865Z,4.55
2019-04-04T12:04:57.815Z,4.57
2019-04-04T12:07:26.369Z,4.70
2019-04-04T12:10:06.476Z,4.50
2019-04-04T12:12:24.936Z,5.20
2019-04-04T12:14:53.337Z,4.20
2019-04-04T12:17:21.773Z,4.10
2019-04-04T12:19:50.166Z,4.53
2019-04-04T12:22:18.587Z,4.10
2019-04-04T12:24:47.022Z,5.40
2019-04-04T12:27:15.423Z,4.10
2019-04-04T12:29:43.805Z,4.33
2019-04-04T12:32:12.224Z,4.17
2019-04-04T12:34:41.622Z,4.03
2019-04-04T12:37:10.060Z,3.80
2019-04-04T12:39:38.974Z,3.30
2019-04-04T12:42:07.829Z,3.00
2019-04-04T12:44:36.257Z,3.07
2019-04-04T12:47:04.739Z,2.87
2019-04-04T12:49:33.158Z,2.97
2019-04-04T12:52:01.561Z,2.87
2019-04-04T12:54:30.048Z,2.87
2019-04-04T12:56:58.530Z,2.83
2019-04-04T12:59:26.931Z,3.00
2019-04-04T13:01:55.369Z,3.00
2019-04-04T13:04:31.497Z,3.47
2019-04-04T13:06:53.933Z,3.37
2019-04-04T13:09:22.356Z,3.10
2019-04-04T13:11:50.805Z,2.77
2019-04-04T13:14:19.221Z,3.00
2019-04-04T13:16:47.632Z,2.77
2019-04-04T13:19:16.088Z,2.83
2019-04-04T13:21:44.588Z,2.90
2019-04-04T13:24:12.989Z,3.03
2019-04-04T13:26:41.403Z,2.70
2019-04-04T13:29:09.840Z,2.97
2019-04-04T13:31:38.304Z,3.20
2019-04-04T13:34:06.712Z,3.20
2019-04-04T13:36:36.751Z,2.90
2019-04-04T13:39:08.749Z,2.80
2019-04-04T13:41:37.526Z,3.10
2019-04-04T13:44:06.131Z,2.80
2019-04-04T13:46:34.544Z,2.77
2019-04-04T13:49:02.962Z,2.53
2019-04-04T13:51:31.462Z,3.00
2019-04-04T13:53:59.863Z,2.90
2019-04-04T13:56:29.364Z,3.20
2019-04-04T13:59:00.995Z,2.80
2019-04-04T14:01:28.148Z,3.27
2019-04-04T14:03:56.602Z,3.17
2019-04-04T14:06:25.233Z,3.37
2019-04-04T14:08:53.730Z,3.90
2019-04-04T14:11:22.222Z,3.37
2019-04-04T14:13:50.721Z,3.20
2019-04-04T14:16:19.139Z,3.27
2019-04-04T14:18:47.556Z,2.80
2019-04-04T14:21:16.001Z,2.93
2019-04-04T14:23:45.403Z,3.10
2019-04-04T14:26:13.923Z,3.30
2019-04-04T14:28:42.347Z,3.00
2019-04-04T14:31:10.770Z,3.07
2019-04-04T14:33:39.185Z,2.77
2019-04-04T14:36:07.795Z,2.73
2019-04-04T14:38:36.240Z,2.60
2019-04-04T14:41:11.033Z,2.83
2019-04-04T14:43:34.777Z,3.10
2019-04-04T14:46:03.237Z,2.93
2019-04-04T14:48:31.652Z,3.10
2019-04-04T14:51:00.053Z,3.10
2019-04-04T14:53:28.514Z,3.30
2019-04-04T14:55:56.892Z,3.30
2019-04-04T14:58:25.337Z,3.57
2019-04-04T15:00:53.733Z,3.23
2019-04-04T15:03:22.153Z,3.80
2019-04-04T15:05:50.594Z,3.63
2019-04-04T15:08:19.000Z,3.40
2019-04-04T15:10:47.405Z,3.17
2019-04-04T15:13:15.865Z,3.20
2019-04-04T15:16:13.292Z,3.40
2019-04-04T15:18:42.292Z,3.87
2019-04-04T15:21:10.782Z,3.40
2019-04-04T15:23:39.258Z,3.33
2019-04-04T15:26:09.818Z,3.70
2019-04-04T15:28:38.113Z,3.70
2019-04-04T15:31:06.747Z,3.43
2019-04-04T15:33:35.414Z,3.43
2019-04-04T15:36:03.988Z,3.40
2019-04-04T15:38:32.494Z,3.53
2019-04-04T15:41:00.947Z,3.50
2019-04-04T15:43:29.347Z,3.80
2019-04-04T15:45:57.928Z,3.73
2019-04-04T15:48:26.396Z,3.43
2019-04-04T15:50:54.788Z,3.50
2019-04-04T15:53:23.178Z,3.43
2019-04-04T15:55:51.617Z,3.60
2019-04-04T15:58:20.019Z,3.33
2019-04-04T16:00:48.423Z,3.93
2019-04-04T16:03:16.879Z,3.50
2019-04-04T16:05:45.300Z,3.60
2019-04-04T16:08:13.723Z,3.70
2019-04-04T16:10:42.197Z,3.73
2019-04-04T16:13:10.586Z,5.97
2019-04-04T16:15:39.010Z,6.63
2019-04-04T16:18:07.900Z,5.58
2019-04-04T16:20:36.297Z,4.17
2019-04-04T16:23:04.758Z,5.40
2019-04-04T16:25:33.197Z,6.93
2019-04-04T16:28:01.629Z,4.53
2019-04-04T16:30:30.033Z,4.23
2019-04-04T16:32:58.450Z,4.23
2019-04-04T16:35:26.872Z,4.27
2019-04-04T16:37:55.303Z,4.40
2019-04-04T16:40:23.771Z,5.57
2019-04-04T16:42:52.162Z,5.57
2019-04-04T16:45:20.653Z,4.37
2019-04-04T16:47:49.063Z,4.20
2019-04-04T16:50:17.477Z,4.33
2019-04-04T16:52:46.931Z,4.80
2019-04-04T16:55:15.498Z,4.87
2019-04-04T16:57:43.921Z,4.47
2019-04-04T17:00:13.839Z,5.00
2019-04-04T17:02:42.237Z,5.30
2019-04-04T17:05:11.374Z,5.33
2019-04-04T17:07:39.893Z,5.37
2019-04-04T17:10:08.718Z,4.97
2019-04-04T17:12:37.153Z,5.23
2019-04-04T17:15:08.969Z,5.20
2019-04-04T17:17:37.482Z,5.30
2019-04-04T17:20:06.808Z,5.03
2019-04-04T17:22:35.512Z,5.60
2019-04-04T17:25:05.868Z,6.07
2019-04-04T17:27:36.970Z,5.70
2019-04-04T17:30:06.635Z,5.90
2019-04-04T17:32:35.255Z,5.63
2019-04-04T17:35:06.345Z,5.67
2019-04-04T17:37:35.135Z,5.80
2019-04-04T17:40:06.124Z,6.07
2019-04-04T17:42:34.585Z,6.00
2019-04-04T17:45:03.749Z,6.10
2019-04-04T17:47:32.197Z,5.50
2019-04-04T17:50:00.767Z,5.97
2019-04-04T17:52:29.756Z,5.97
2019-04-04T17:54:58.293Z,6.03
2019-04-04T17:57:27.181Z,6.43
2019-04-04T17:59:55.704Z,6.30
2019-04-04T18:02:24.125Z,6.83
2019-04-04T18:04:52.523Z,6.97
2019-04-04T18:07:21.020Z,7.37
2019-04-04T18:09:49.493Z,6.93
2019-04-04T18:12:17.891Z,6.53
2019-04-04T18:14:46.302Z,7.07
2019-04-04T18:17:14.763Z,7.47
2019-04-04T18:19:43.197Z,7.17
2019-04-04T18:22:11.585Z,6.63
2019-04-04T18:24:40.265Z,7.27
2019-04-04T18:27:08.676Z,7.43
2019-04-04T18:29:37.069Z,7.33
2019-04-04T18:32:05.501Z,8.37
2019-04-04T18:34:33.957Z,8.80
2019-04-04T18:37:02.425Z,8.77
2019-04-04T18:39:30.860Z,9.53
2019-04-04T18:41:59.273Z,9.67
2019-04-04T18:44:27.704Z,9.47
2019-04-04T18:46:56.133Z,9.90
2019-04-04T18:49:24.533Z,10.00
2019-04-04T18:51:52.929Z,9.23
2019-04-04T18:54:21.428Z,9.03
2019-04-04T18:56:49.825Z,9.77
2019-04-04T18:59:18.228Z,10.33
2019-04-04T19:01:46.656Z,9.57
2019-04-04T19:04:15.062Z,10.17
2019-04-04T19:06:43.503Z,10.10
2019-04-04T19:09:14.991Z,10.33
2019-04-04T19:11:43.937Z,9.30
2019-04-04T19:14:12.392Z,9.30
2019-04-04T19:16:40.969Z,9.13
2019-04-04T19:19:09.533Z,9.30
2019-04-04T19:21:37.965Z,9.97
2019-04-04T19:24:06.391Z,10.33
2019-04-04T19:26:34.793Z,10.30
2019-04-04T19:29:03.220Z,9.67
2019-04-04T19:31:31.613Z,9.27
2019-04-04T19:34:00.015Z,9.73
2019-04-04T19:36:28.474Z,10.43
2019-04-04T19:38:56.885Z,10.10
2019-04-04T19:41:25.287Z,11.00
2019-04-04T19:43:53.726Z,11.10
2019-04-04T19:46:22.138Z,9.48
2019-04-04T19:48:50.534Z,8.53
2019-04-04T19:51:18.984Z,9.90
2019-04-04T19:53:47.492Z,11.00
2019-04-04T19:56:15.998Z,9.10
2019-04-04T19:58:44.440Z,8.80
2019-04-04T20:01:12.859Z,9.50
2019-04-04T20:03:41.258Z,8.53
2019-04-04T20:06:09.728Z,9.07
2019-04-04T20:08:38.145Z,9.33
2019-04-04T20:11:06.543Z,9.37
2019-04-04T20:13:34.992Z,10.13
2019-04-04T20:16:03.403Z,9.40
2019-04-04T20:18:31.878Z,12.10
2019-04-04T20:21:00.322Z,11.47
2019-04-04T20:23:28.730Z,11.57
2019-04-04T20:25:57.162Z,11.13
2019-04-04T20:28:25.583Z,11.33
2019-04-04T20:30:54.012Z,11.77
2019-04-04T20:33:22.442Z,10.90
2019-04-04T20:35:50.850Z,11.77
2019-04-04T20:38:19.357Z,11.43
2019-04-04T20:40:47.831Z,11.43
2019-04-04T20:43:16.234Z,11.83
2019-04-04T20:45:44.637Z,10.77
2019-04-04T20:48:13.082Z,10.33
2019-04-04T20:50:41.504Z,10.90
2019-04-04T20:53:09.900Z,11.53
2019-04-04T20:55:38.325Z,11.33
2019-04-04T20:58:07.659Z,13.33
2019-04-04T21:00:36.345Z,13.57
2019-04-04T21:03:04.778Z,12.60
2019-04-04T21:05:33.189Z,12.93
2019-04-04T21:08:01.612Z,13.30
2019-04-04T21:10:30.027Z,12.87
2019-04-04T21:12:58.433Z,13.10
2019-04-04T21:15:26.856Z,11.93
2019-04-04T21:17:55.272Z,12.37
2019-04-04T21:20:23.679Z,12.65
2019-04-04T21:22:52.116Z,13.00
2019-04-04T21:25:20.501Z,12.40
2019-04-04T21:27:48.902Z,12.30
2019-04-04T21:30:17.597Z,12.37
2019-04-04T21:32:46.017Z,13.27
2019-04-04T21:35:14.422Z,13.53
2019-04-04T21:37:42.852Z,13.87
2019-04-04T21:40:11.252Z,14.60
2019-04-04T21:42:39.676Z,13.60
2019-04-04T21:45:08.575Z,13.83
2019-04-04T21:47:37.000Z,13.70
2019-04-04T21:50:06.944Z,15.67
2019-04-04T21:52:35.942Z,14.07
2019-04-04T21:55:05.913Z,14.23
2019-04-04T21:57:34.360Z,13.53
2019-04-04T22:00:02.753Z,14.57
2019-04-04T22:02:31.234Z,13.87
2019-04-04T22:05:01.523Z,13.90
2019-04-04T22:07:29.931Z,14.87
2019-04-04T22:09:58.405Z,14.73
2019-04-04T22:12:26.839Z,15.37
2019-04-04T22:14:55.239Z,14.50
2019-04-04T22:17:23.643Z,15.10
2019-04-04T22:19:52.066Z,16.03
2019-04-04T22:22:20.469Z,15.33
2019-04-04T22:24:48.888Z,15.73
2019-04-04T22:27:17.313Z,15.77
2019-04-04T22:29:45.824Z,15.80
2019-04-04T22:32:14.223Z,14.70
2019-04-04T22:34:42.679Z,16.73
2019-04-04T22:37:11.100Z,17.07
2019-04-04T22:39:39.495Z,16.57
2019-04-04T22:42:08.058Z,17.67
2019-04-04T22:44:36.497Z,16.93
2019-04-04T22:47:04.909Z,17.37
2019-04-04T22:49:33.356Z,16.10
2019-04-04T22:52:01.763Z,15.40
2019-04-04T22:54:30.164Z,16.57
2019-04-04T22:56:58.601Z,16.47
2019-04-04T22:59:27.014Z,16.73
2019-04-04T23:01:55.413Z,15.30
2019-04-04T23:04:23.838Z,15.97
2019-04-04T23:06:52.288Z,17.53
2019-04-04T23:09:20.704Z,15.27
2019-04-04T23:11:49.106Z,15.73
2019-04-04T23:14:17.534Z,16.90
2019-04-04T23:16:45.941Z,16.97
2019-04-04T23:19:14.358Z,16.70
2019-04-04T23:21:42.763Z,16.23
2019-04-04T23:24:11.201Z,16.33
2019-04-04T23:26:39.664Z,16.80
2019-04-04T23:29:08.092Z,17.37
2019-04-04T23:31:36.497Z,16.03
2019-04-04T23:34:04.927Z,16.30
2019-04-04T23:36:35.198Z,16.30
2019-04-04T23:39:04.553Z,16.40
2019-04-04T23:41:33.017Z,16.27
2019-04-04T23:44:01.418Z,15.80
2019-04-04T23:46:29.838Z,15.90
2019-04-04T23:48:58.568Z,16.73
2019-04-04T23:51:26.990Z,17.10
2019-04-04T23:53:55.386Z,16.73
2019-04-04T23:56:23.824Z,17.83
2019-04-04T23:58:52.233Z,17.20
